createdAt,value
2023-02-26T00:00:14.941Z,-1.80
2023-02-26T00:02:42.701Z,-1.80
2023-02-26T00:05:10.168Z,-1.80
2023-02-26T00:07:37.350Z,-1.80
2023-02-26T00:10:09.415Z,-1.80
2023-02-26T00:12:36.646Z,-1.90
2023-02-26T00:15:05.047Z,-2.00
2023-02-26T00:17:37.329Z,-2.00
2023-02-26T00:20:05.513Z,-2.10
2023-02-26T00:22:32.472Z,-2.10
2023-02-26T00:24:59.167Z,-2.00
2023-02-26T00:27:25.850Z,-2.10
2023-02-26T00:29:53.040Z,-2.20
2023-02-26T00:32:20.021Z,-2.20
2023-02-26T00:34:47.602Z,-2.20
2023-02-26T00:37:28.272Z,-2.20
2023-02-26T00:40:33.617Z,-2.30
2023-02-26T00:43:01.904Z,-2.30
2023-02-26T00:45:28.931Z,-2.20
2023-02-26T00:48:07.573Z,-2.20
2023-02-26T00:50:35.924Z,-2.30
2023-02-26T00:53:14.460Z,-2.30
2023-02-26T00:55:41.200Z,-2.30
2023-02-26T00:58:07.925Z,-2.30
2023-02-26T01:00:34.585Z,-2.30
2023-02-26T01:03:03.581Z,-2.20
2023-02-26T01:05:30.770Z,-2.10
2023-02-26T01:08:09.189Z,-2.20
2023-02-26T01:10:36.318Z,-2.20
2023-02-26T01:13:03.324Z,-2.30
2023-02-26T01:15:30.500Z,-2.30
2023-02-26T01:18:14.005Z,-2.30
2023-02-26T01:20:49.223Z,-2.40
2023-02-26T01:23:24.334Z,-2.40
2023-02-26T01:26:00.959Z,-2.40
2023-02-26T01:28:29.252Z,-2.40
2023-02-26T01:31:01.354Z,-2.50
2023-02-26T01:34:03.752Z,-2.50
2023-02-26T01:36:36.578Z,-2.60
2023-02-26T01:39:29.061Z,-2.60
2023-02-26T01:42:06.410Z,-2.60
2023-02-26T01:44:54.693Z,-2.70
2023-02-26T01:47:28.738Z,-2.80
2023-02-26T01:49:58.807Z,-2.90
2023-02-26T01:53:04.492Z,-3.00
2023-02-26T01:55:31.232Z,-3.00
2023-02-26T01:57:59.949Z,-3.00
2023-02-26T02:00:26.964Z,-3.00
2023-02-26T02:02:53.906Z,-3.00
2023-02-26T02:05:47.213Z,-2.90
2023-02-26T02:08:14.493Z,-3.00
2023-02-26T02:10:44.683Z,-3.00
2023-02-26T02:13:31.333Z,-3.00
2023-02-26T02:16:15.504Z,-3.00
2023-02-26T02:18:54.198Z,-3.10
2023-02-26T02:21:56.155Z,-3.10
2023-02-26T02:25:09.049Z,-3.20
2023-02-26T02:27:42.272Z,-3.10
2023-02-26T02:30:37.421Z,-3.10
2023-02-26T02:33:12.532Z,-3.00
2023-02-26T02:35:44.605Z,-3.00
2023-02-26T02:38:25.197Z,-3.00
2023-02-26T02:41:09.516Z,-3.00
2023-02-26T02:43:38.998Z,-3.10
2023-02-26T02:46:09.137Z,-3.20
2023-02-26T02:48:45.116Z,-3.30
2023-02-26T02:51:32.842Z,-3.20
2023-02-26T02:54:13.122Z,-3.30
2023-02-26T02:56:56.639Z,-3.20
2023-02-26T02:59:41.850Z,-3.30
2023-02-26T03:02:38.217Z,-3.30
2023-02-26T03:05:05.452Z,-3.30
2023-02-26T03:07:37.218Z,-3.40
2023-02-26T03:10:04.450Z,-3.30
2023-02-26T03:12:32.694Z,-3.30
2023-02-26T03:15:00.699Z,-3.30
2023-02-26T03:17:40.995Z,-3.40
2023-02-26T03:20:16.475Z,-3.30
2023-02-26T03:22:49.149Z,-3.30
2023-02-26T03:25:33.418Z,-3.20
2023-02-26T03:28:14.142Z,-3.30
2023-02-26T03:30:53.515Z,-3.40
2023-02-26T03:33:49.517Z,-3.40
2023-02-26T03:37:01.620Z,-3.40
2023-02-26T03:39:39.242Z,-3.40
2023-02-26T03:42:07.593Z,-3.40
2023-02-26T03:44:56.881Z,-3.60
2023-02-26T03:47:24.599Z,-3.60
2023-02-26T03:49:56.675Z,-3.60
2023-02-26T03:52:27.393Z,-3.60
2023-02-26T03:55:23.927Z,-3.70
2023-02-26T03:57:53.879Z,-3.60
2023-02-26T04:00:47.746Z,-3.70
2023-02-26T04:03:25.751Z,-3.80
2023-02-26T04:05:53.923Z,-3.80
2023-02-26T04:08:22.466Z,-3.70
2023-02-26T04:10:56.790Z,-3.70
2023-02-26T04:13:24.000Z,-3.70
2023-02-26T04:15:51.540Z,-3.70
2023-02-26T04:18:18.203Z,-3.60
2023-02-26T04:20:45.008Z,-3.50
2023-02-26T04:23:11.775Z,-3.50
2023-02-26T04:25:39.570Z,-3.50
2023-02-26T04:28:06.860Z,-3.50
2023-02-26T04:30:33.775Z,-3.50
2023-02-26T04:33:01.273Z,-3.70
2023-02-26T04:35:28.407Z,-3.70
2023-02-26T04:37:57.314Z,-3.80
2023-02-26T04:40:24.077Z,-3.80
2023-02-26T04:42:51.003Z,-3.80
2023-02-26T04:45:22.783Z,-3.90
2023-02-26T04:47:49.527Z,-3.90
2023-02-26T04:50:16.935Z,-3.90
2023-02-26T04:52:45.785Z,-3.90
2023-02-26T04:55:12.673Z,-3.90
2023-02-26T04:57:39.446Z,-3.90
2023-02-26T05:00:07.744Z,-4.00
2023-02-26T05:02:37.156Z,-4.10
2023-02-26T05:05:04.365Z,-4.00
2023-02-26T05:07:31.171Z,-4.00
2023-02-26T05:09:57.927Z,-3.90
2023-02-26T05:12:24.807Z,-3.80
2023-02-26T05:14:51.476Z,-3.80
2023-02-26T05:17:18.414Z,-3.80
2023-02-26T05:19:45.083Z,-3.80
2023-02-26T05:22:12.309Z,-3.90
2023-02-26T05:24:39.227Z,-3.80
2023-02-26T05:27:06.610Z,-3.80
2023-02-26T05:29:35.460Z,-3.80
2023-02-26T05:32:04.240Z,-3.90
2023-02-26T05:34:30.983Z,-4.00
2023-02-26T05:36:57.731Z,-4.00
2023-02-26T05:39:24.546Z,-4.00
2023-02-26T05:41:53.105Z,-4.00
2023-02-26T05:44:19.808Z,-4.00
2023-02-26T05:46:46.673Z,-3.90
2023-02-26T05:49:13.630Z,-3.90
2023-02-26T05:51:42.686Z,-3.90
2023-02-26T05:54:10.018Z,-4.00
2023-02-26T05:56:36.810Z,-4.00
2023-02-26T05:59:04.362Z,-3.90
2023-02-26T06:01:31.243Z,-3.90
2023-02-26T06:03:57.989Z,-3.90
2023-02-26T06:06:27.045Z,-3.90
2023-02-26T06:08:54.107Z,-3.90
2023-02-26T06:11:21.167Z,-3.80
2023-02-26T06:13:48.225Z,-3.80
2023-02-26T06:16:15.182Z,-3.70
2023-02-26T06:18:42.104Z,-3.70
2023-02-26T06:21:09.412Z,-3.70
2023-02-26T06:23:36.392Z,-3.70
2023-02-26T06:26:03.424Z,-3.70
2023-02-26T06:28:30.182Z,-3.80
2023-02-26T06:30:57.095Z,-3.80
2023-02-26T06:33:24.230Z,-3.80
2023-02-26T06:35:51.438Z,-3.80
2023-02-26T06:38:19.046Z,-3.80
2023-02-26T06:40:47.786Z,-3.70
2023-02-26T06:43:14.695Z,-3.80
2023-02-26T06:45:41.629Z,-3.80
2023-02-26T06:48:08.634Z,-3.90
2023-02-26T06:50:35.500Z,-3.80
2023-02-26T06:53:02.389Z,-3.80
2023-02-26T06:55:29.246Z,-3.70
2023-02-26T06:57:57.512Z,-3.70
2023-02-26T07:00:25.396Z,-3.70
2023-02-26T07:02:52.460Z,-3.80
2023-02-26T07:05:19.302Z,-3.80
2023-02-26T07:07:45.957Z,-3.90
2023-02-26T07:10:13.052Z,-4.00
2023-02-26T07:12:39.811Z,-4.00
2023-02-26T07:15:07.332Z,-4.00
2023-02-26T07:17:34.027Z,-4.00
2023-02-26T07:20:06.176Z,-4.10
2023-02-26T07:22:33.833Z,-4.10
2023-02-26T07:25:00.630Z,-4.10
2023-02-26T07:27:27.643Z,-4.20
2023-02-26T07:29:54.291Z,-4.10
2023-02-26T07:32:21.240Z,-4.00
2023-02-26T07:34:47.953Z,-4.00
2023-02-26T07:37:14.699Z,-3.90
2023-02-26T07:39:41.347Z,-3.90
2023-02-26T07:42:09.109Z,-4.00
2023-02-26T07:44:36.020Z,-3.90
2023-02-26T07:47:02.897Z,-3.70
2023-02-26T07:49:29.605Z,-3.60
2023-02-26T07:51:56.251Z,-3.60
2023-02-26T07:54:23.015Z,-3.50
2023-02-26T07:56:50.543Z,-3.40
2023-02-26T07:59:17.308Z,-3.30
2023-02-26T08:01:44.178Z,-3.10
2023-02-26T08:04:11.061Z,-2.90
2023-02-26T08:06:37.853Z,-2.80
2023-02-26T08:09:05.465Z,-2.70
2023-02-26T08:11:39.641Z,-2.80
2023-02-26T08:14:07.439Z,-2.90
2023-02-26T08:16:34.148Z,-3.00
2023-02-26T08:19:01.054Z,-3.00
2023-02-26T08:21:28.183Z,-2.80
2023-02-26T08:23:54.932Z,-2.60
2023-02-26T08:26:21.943Z,-2.60
2023-02-26T08:28:49.065Z,-2.70
2023-02-26T08:31:16.829Z,-2.50
2023-02-26T08:33:43.783Z,-2.70
2023-02-26T08:36:11.013Z,-2.90
2023-02-26T08:38:37.927Z,-2.80
2023-02-26T08:41:05.229Z,-2.80
2023-02-26T08:43:32.042Z,-2.90
2023-02-26T08:45:59.316Z,-2.70
2023-02-26T08:48:26.138Z,-2.40
2023-02-26T08:50:52.947Z,-2.10
2023-02-26T08:53:19.634Z,-2.00
2023-02-26T08:55:50.728Z,-2.10
2023-02-26T08:58:18.859Z,-2.10
2023-02-26T09:00:45.700Z,-2.10
2023-02-26T09:03:12.789Z,-2.10
2023-02-26T09:05:40.842Z,-2.10
2023-02-26T09:08:08.245Z,-2.30
2023-02-26T09:10:35.133Z,-2.50
2023-02-26T09:13:02.008Z,-2.60
2023-02-26T09:15:28.981Z,-2.60
2023-02-26T09:17:58.012Z,-2.80
2023-02-26T09:20:24.807Z,-2.80
2023-02-26T09:22:51.495Z,-2.70
2023-02-26T09:25:18.295Z,-2.70
2023-02-26T09:27:45.028Z,-2.80
2023-02-26T09:30:12.672Z,-2.70
2023-02-26T09:32:39.537Z,-2.70
2023-02-26T09:35:06.746Z,-2.90
2023-02-26T09:37:33.955Z,-2.80
2023-02-26T09:40:00.701Z,-2.80
2023-02-26T09:42:49.256Z,-2.70
2023-02-26T09:45:29.420Z,-2.50
2023-02-26T09:47:56.985Z,-2.50
2023-02-26T09:50:42.771Z,-2.40
2023-02-26T09:53:34.127Z,-2.20
2023-02-26T09:56:08.054Z,-2.30
2023-02-26T09:58:39.883Z,-2.40
2023-02-26T10:01:13.075Z,-2.40
2023-02-26T10:03:52.323Z,-2.40
2023-02-26T10:06:37.873Z,-2.30
2023-02-26T10:09:30.573Z,-2.20
2023-02-26T10:12:26.669Z,-2.30
2023-02-26T10:14:53.296Z,-2.20
2023-02-26T10:17:31.868Z,-2.20
2023-02-26T10:20:05.010Z,-2.40
2023-02-26T10:23:01.877Z,-2.30
2023-02-26T10:26:02.758Z,-2.30
2023-02-26T10:28:44.313Z,-2.50
2023-02-26T10:31:32.972Z,-2.60
2023-02-26T10:34:24.561Z,-2.90
2023-02-26T10:37:18.337Z,-2.80
2023-02-26T10:40:06.537Z,-2.80
2023-02-26T10:42:46.670Z,-2.80
2023-02-26T10:45:28.520Z,-2.70
2023-02-26T10:48:16.847Z,-2.60
2023-02-26T10:50:55.931Z,-2.70
2023-02-26T10:53:23.582Z,-2.90
2023-02-26T10:56:10.470Z,-2.90
2023-02-26T10:58:37.511Z,-2.80
2023-02-26T11:01:13.733Z,-3.00
2023-02-26T11:03:46.407Z,-2.90
2023-02-26T11:06:40.183Z,-2.70
2023-02-26T11:09:27.022Z,-2.70
2023-02-26T11:11:56.841Z,-2.50
2023-02-26T11:14:27.655Z,-2.40
2023-02-26T11:17:02.272Z,-2.40
2023-02-26T11:19:35.183Z,-2.40
2023-02-26T11:22:04.136Z,-2.40
2023-02-26T11:24:46.980Z,-2.40
2023-02-26T11:27:22.139Z,-2.20
2023-02-26T11:29:56.018Z,-2.10
2023-02-26T11:32:34.331Z,-2.10
2023-02-26T11:35:01.064Z,-2.20
2023-02-26T11:37:35.695Z,-2.30
2023-02-26T11:40:28.806Z,-2.10
2023-02-26T11:43:00.418Z,-1.90
2023-02-26T11:45:27.209Z,-1.60
2023-02-26T11:48:04.000Z,-1.40
2023-02-26T11:50:43.115Z,-1.40
2023-02-26T11:53:25.735Z,-1.30
2023-02-26T11:55:58.570Z,-1.30
2023-02-26T11:58:25.455Z,-1.30
2023-02-26T12:00:53.767Z,-1.20
2023-02-26T12:03:23.457Z,-1.20
2023-02-26T12:05:53.301Z,-1.20
2023-02-26T12:08:27.827Z,-1.50
2023-02-26T12:11:07.080Z,-1.30
2023-02-26T12:13:59.342Z,-1.40
2023-02-26T12:16:43.238Z,-1.60
2023-02-26T12:19:33.236Z,-1.40
2023-02-26T12:22:39.167Z,-1.30
2023-02-26T12:25:23.329Z,-1.50
2023-02-26T12:28:05.144Z,-1.50
2023-02-26T12:30:43.733Z,-1.50
2023-02-26T12:33:18.731Z,-1.40
2023-02-26T12:36:03.164Z,-1.40
2023-02-26T12:38:43.675Z,-1.40
2023-02-26T12:41:19.066Z,-1.30
2023-02-26T12:43:47.908Z,-1.40
2023-02-26T12:46:29.614Z,-1.50
2023-02-26T12:49:05.332Z,-1.50
2023-02-26T12:51:38.271Z,-1.30
2023-02-26T12:54:25.215Z,-1.00
2023-02-26T12:57:08.329Z,-0.80
2023-02-26T12:59:44.076Z,-0.80
2023-02-26T13:02:39.527Z,-0.80
2023-02-26T13:05:18.309Z,-0.70
2023-02-26T13:08:13.889Z,-0.60
2023-02-26T13:11:17.708Z,-0.80
2023-02-26T13:14:04.870Z,-1.00
2023-02-26T13:17:10.278Z,-1.40
2023-02-26T13:19:50.868Z,-1.60
2023-02-26T13:22:29.122Z,-1.70
2023-02-26T13:25:02.035Z,-1.60
2023-02-26T13:27:33.580Z,-1.30
2023-02-26T13:30:22.084Z,-1.10
2023-02-26T13:32:52.904Z,-1.00
2023-02-26T13:35:25.625Z,-1.00
2023-02-26T13:37:58.640Z,-1.00
2023-02-26T13:40:34.249Z,-1.00
2023-02-26T13:43:06.478Z,-1.10
2023-02-26T13:45:45.598Z,-1.00
2023-02-26T13:48:35.471Z,-1.10
2023-02-26T13:51:29.798Z,-0.80
2023-02-26T13:54:04.393Z,-0.60
2023-02-26T13:56:31.027Z,-0.60
2023-02-26T13:59:12.493Z,-0.60
2023-02-26T14:02:02.590Z,-0.80
2023-02-26T14:04:32.022Z,-1.10
2023-02-26T14:07:15.609Z,-1.50
2023-02-26T14:10:05.189Z,-1.90
2023-02-26T14:12:37.866Z,-2.00
2023-02-26T14:15:13.774Z,-2.10
2023-02-26T14:17:48.980Z,-2.10
2023-02-26T14:20:18.624Z,-2.10
2023-02-26T14:22:53.561Z,-1.70
2023-02-26T14:25:34.932Z,-0.80
2023-02-26T14:28:34.245Z,-0.40
2023-02-26T14:31:12.939Z,0.30
2023-02-26T14:33:48.224Z,0.90
2023-02-26T14:36:28.404Z,1.30
2023-02-26T14:38:58.864Z,2.40
2023-02-26T14:41:32.724Z,3.90
2023-02-26T14:44:16.768Z,4.40
2023-02-26T14:46:45.296Z,3.90
2023-02-26T14:49:18.928Z,3.80
2023-02-26T14:51:51.310Z,3.70
2023-02-26T14:54:55.915Z,3.50
2023-02-26T14:57:40.619Z,4.10
2023-02-26T15:00:35.504Z,4.10
2023-02-26T15:03:15.382Z,3.30
2023-02-26T15:06:03.774Z,2.10
2023-02-26T15:08:47.412Z,1.40
2023-02-26T15:11:33.015Z,1.20
2023-02-26T15:14:09.669Z,0.80
2023-02-26T15:17:16.177Z,0.00
2023-02-26T15:19:53.805Z,-0.90
2023-02-26T15:22:43.460Z,-1.60
2023-02-26T15:25:30.385Z,-2.00
2023-02-26T15:27:57.470Z,-2.40
2023-02-26T15:30:26.049Z,-2.40
2023-02-26T15:33:02.985Z,-2.50
2023-02-26T15:35:31.739Z,-2.70
2023-02-26T15:38:01.685Z,-2.80
2023-02-26T15:40:34.962Z,-2.90
2023-02-26T15:43:03.168Z,-2.80
2023-02-26T15:45:37.142Z,-2.70
2023-02-26T15:48:21.411Z,-2.70
2023-02-26T15:50:57.076Z,-2.60
2023-02-26T15:53:32.292Z,-2.50
2023-02-26T15:56:01.744Z,-2.40
2023-02-26T15:58:38.543Z,-2.40
2023-02-26T16:01:05.739Z,-2.40
2023-02-26T16:03:36.279Z,-2.50
2023-02-26T16:06:04.117Z,-2.40
2023-02-26T16:08:30.968Z,-2.50
2023-02-26T16:11:00.881Z,-2.50
2023-02-26T16:13:33.342Z,-2.50
2023-02-26T16:16:03.615Z,-2.50
2023-02-26T16:18:33.864Z,-2.50
2023-02-26T16:21:03.165Z,-2.50
2023-02-26T16:23:42.066Z,-2.50
2023-02-26T16:26:14.710Z,-2.50
2023-02-26T16:28:46.170Z,-2.60
2023-02-26T16:31:25.679Z,-2.60
2023-02-26T16:33:59.900Z,-2.70
2023-02-26T16:36:31.266Z,-2.70
2023-02-26T16:39:11.790Z,-2.70
2023-02-26T16:41:41.394Z,-2.70
2023-02-26T16:44:29.965Z,-2.80
2023-02-26T16:46:58.149Z,-2.90
2023-02-26T16:49:33.731Z,-2.90
2023-02-26T16:52:01.043Z,-2.90
2023-02-26T16:54:33.218Z,-2.90
2023-02-26T16:57:16.434Z,-3.00
2023-02-26T16:59:47.883Z,-3.10
2023-02-26T17:02:18.901Z,-3.10
2023-02-26T17:04:49.892Z,-3.10
2023-02-26T17:07:32.108Z,-3.10
2023-02-26T17:10:06.713Z,-3.00
2023-02-26T17:12:51.698Z,-3.00
2023-02-26T17:15:26.690Z,-2.90
2023-02-26T17:17:56.685Z,-2.90
2023-02-26T17:20:29.293Z,-2.90
2023-02-26T17:22:56.832Z,-3.00
2023-02-26T17:25:26.495Z,-3.00
2023-02-26T17:27:53.805Z,-3.00
2023-02-26T17:30:24.084Z,-3.00
2023-02-26T17:32:51.153Z,-2.90
2023-02-26T17:35:19.128Z,-2.90
2023-02-26T17:37:49.034Z,-2.90
2023-02-26T17:40:36.241Z,-2.90
2023-02-26T17:43:04.696Z,-3.00
2023-02-26T17:45:35.090Z,-3.00
2023-02-26T17:48:02.117Z,-3.00
2023-02-26T17:50:57.148Z,-3.00
2023-02-26T17:53:28.116Z,-3.20
2023-02-26T17:55:56.438Z,-3.20
2023-02-26T17:58:28.567Z,-3.20
2023-02-26T18:00:56.548Z,-3.20
2023-02-26T18:03:23.829Z,-3.10
2023-02-26T18:05:52.851Z,-3.20
2023-02-26T18:08:23.205Z,-3.20
2023-02-26T18:10:50.587Z,-3.30
2023-02-26T18:13:17.353Z,-3.20
2023-02-26T18:15:44.444Z,-3.20
2023-02-26T18:18:14.818Z,-3.10
2023-02-26T18:20:42.734Z,-3.10
2023-02-26T18:23:12.340Z,-3.10
2023-02-26T18:25:40.466Z,-3.10
2023-02-26T18:28:14.249Z,-3.20
2023-02-26T18:30:43.543Z,-3.30
2023-02-26T18:33:12.035Z,-3.40
2023-02-26T18:35:45.642Z,-3.40
2023-02-26T18:38:17.620Z,-3.40
2023-02-26T18:40:45.960Z,-3.40
2023-02-26T18:43:13.551Z,-3.40
2023-02-26T18:45:45.232Z,-3.40
2023-02-26T18:48:15.823Z,-3.40
2023-02-26T18:50:44.017Z,-3.40
2023-02-26T18:53:12.459Z,-3.50
2023-02-26T18:55:39.490Z,-3.40
2023-02-26T18:58:06.246Z,-3.50
2023-02-26T19:00:33.755Z,-3.50
2023-02-26T19:03:00.563Z,-3.40
2023-02-26T19:05:27.299Z,-3.40
2023-02-26T19:07:54.684Z,-3.30
2023-02-26T19:10:22.337Z,-3.40
2023-02-26T19:12:50.765Z,-3.40
2023-02-26T19:15:17.930Z,-3.40
2023-02-26T19:17:44.982Z,-3.40
2023-02-26T19:20:12.473Z,-3.50
2023-02-26T19:22:41.803Z,-3.50
2023-02-26T19:25:09.658Z,-3.50
2023-02-26T19:27:37.266Z,-3.40
2023-02-26T19:30:05.601Z,-3.50
2023-02-26T19:32:32.564Z,-3.50
2023-02-26T19:34:59.589Z,-3.50
2023-02-26T19:37:26.461Z,-3.40
2023-02-26T19:39:53.118Z,-3.40
2023-02-26T19:42:20.142Z,-3.40
2023-02-26T19:44:46.912Z,-3.40
2023-02-26T19:47:13.603Z,-3.40
2023-02-26T19:49:40.270Z,-3.40
2023-02-26T19:52:08.521Z,-3.40
2023-02-26T19:54:35.633Z,-3.40
2023-02-26T19:57:02.388Z,-3.40
2023-02-26T19:59:29.156Z,-3.40
2023-02-26T20:01:55.863Z,-3.40
2023-02-26T20:04:22.622Z,-3.40
2023-02-26T20:06:49.306Z,-3.40
2023-02-26T20:09:17.137Z,-3.40
2023-02-26T20:11:44.045Z,-3.40
2023-02-26T20:14:10.964Z,-3.40
2023-02-26T20:16:37.836Z,-3.50
2023-02-26T20:19:04.584Z,-3.40
2023-02-26T20:21:31.255Z,-3.50
2023-02-26T20:23:58.111Z,-3.40
2023-02-26T20:26:25.148Z,-3.40
2023-02-26T20:28:52.486Z,-3.40
2023-02-26T20:31:19.413Z,-3.50
2023-02-26T20:33:46.799Z,-3.50
2023-02-26T20:36:13.721Z,-3.50
2023-02-26T20:38:40.899Z,-3.50
2023-02-26T20:41:08.643Z,-3.60
2023-02-26T20:43:35.438Z,-3.60
2023-02-26T20:46:02.406Z,-3.50
2023-02-26T20:48:29.633Z,-3.50
2023-02-26T20:51:06.107Z,-3.60
2023-02-26T20:53:33.460Z,-3.60
2023-02-26T20:56:00.627Z,-3.60
2023-02-26T20:58:27.722Z,-3.60
2023-02-26T21:00:58.229Z,-3.60
2023-02-26T21:03:25.521Z,-3.60
2023-02-26T21:05:52.526Z,-3.60
2023-02-26T21:08:19.309Z,-3.70
2023-02-26T21:10:46.170Z,-3.60
2023-02-26T21:13:13.007Z,-3.60
2023-02-26T21:15:39.780Z,-3.60
2023-02-26T21:18:06.534Z,-3.60
2023-02-26T21:20:33.220Z,-3.60
2023-02-26T21:22:59.945Z,-3.60
2023-02-26T21:25:27.552Z,-3.60
2023-02-26T21:27:54.306Z,-3.60
2023-02-26T21:30:23.205Z,-3.60
2023-02-26T21:32:50.776Z,-3.60
2023-02-26T21:35:17.964Z,-3.60
2023-02-26T21:37:45.356Z,-3.70
2023-02-26T21:40:14.526Z,-3.60
2023-02-26T21:42:42.371Z,-3.60
2023-02-26T21:45:09.809Z,-3.60
2023-02-26T21:47:37.448Z,-3.70
2023-02-26T21:50:05.766Z,-3.70
2023-02-26T21:52:32.716Z,-3.70
2023-02-26T21:54:59.446Z,-3.80
2023-02-26T21:57:27.075Z,-3.80
2023-02-26T21:59:53.844Z,-3.70
2023-02-26T22:02:20.892Z,-3.80
2023-02-26T22:04:47.587Z,-3.80
2023-02-26T22:07:14.260Z,-3.80
2023-02-26T22:09:41.751Z,-3.80
2023-02-26T22:12:08.504Z,-3.80
2023-02-26T22:14:35.258Z,-3.80
2023-02-26T22:17:02.081Z,-3.80
2023-02-26T22:19:28.739Z,-3.80
2023-02-26T22:21:55.433Z,-3.80
2023-02-26T22:24:22.106Z,-3.80
2023-02-26T22:26:49.408Z,-3.80
2023-02-26T22:29:18.323Z,-3.80
2023-02-26T22:31:47.306Z,-3.70
2023-02-26T22:34:14.342Z,-3.70
2023-02-26T22:36:40.999Z,-3.70
2023-02-26T22:39:07.769Z,-3.70
2023-02-26T22:41:35.400Z,-3.70
2023-02-26T22:44:02.369Z,-3.80
2023-02-26T22:46:29.045Z,-3.70
2023-02-26T22:48:55.902Z,-3.70
2023-02-26T22:51:22.972Z,-3.80
2023-02-26T22:53:50.305Z,-3.70
2023-02-26T22:56:17.272Z,-3.80
2023-02-26T22:58:43.970Z,-3.80
2023-02-26T23:01:10.899Z,-3.70
2023-02-26T23:03:37.641Z,-3.70
2023-02-26T23:06:04.623Z,-3.70
2023-02-26T23:08:31.334Z,-3.70
2023-02-26T23:10:59.313Z,-3.60
2023-02-26T23:13:27.141Z,-3.60
2023-02-26T23:15:53.822Z,-3.60
2023-02-26T23:18:20.554Z,-3.70
2023-02-26T23:20:48.709Z,-3.70
2023-02-26T23:23:16.140Z,-3.70
2023-02-26T23:25:43.849Z,-3.80
2023-02-26T23:28:11.111Z,-3.70
2023-02-26T23:30:38.274Z,-3.70
2023-02-26T23:33:07.016Z,-3.60
2023-02-26T23:35:35.084Z,-3.70
2023-02-26T23:38:02.290Z,-3.70
2023-02-26T23:40:29.555Z,-3.70
2023-02-26T23:42:56.235Z,-3.70
2023-02-26T23:45:23.325Z,-3.80
2023-02-26T23:47:50.470Z,-3.80
2023-02-26T23:50:17.564Z,-3.80
2023-02-26T23:52:44.216Z,-3.80
2023-02-26T23:55:11.643Z,-3.80
2023-02-26T23:57:38.347Z,-3.80
